Oakland, CA

11:02 PM PDT on July 06, 2015 (GMT -0700)
ALLENDALE | | Change Station
CLOSE
Current Station
Personal Weather Station
Location: Oakland, CA
Elevation: 141 ft
Nearby Weather Stations

Elev 141 ft 37.79 °N, 122.20 °W | Updated 15 minutes ago

Partly Cloudy
Partly Cloudy
61.7 °F
Feels Like 61.7 °F
N
0.0
Wind Variable Wind from West

Today
High -- | Low -- °F
--% Chance of Precip.
Yesterday
High -- | Low -- °F
Precip. -- in
5:53 AM 8:33 PM
Waning Gibbous, 68% visible
Pressure 30.03 in
Visibility 10.0 miles
Clouds Few 1000 ft
Dew Point 56 °F
Humidity 83%
Rainfall 0.00 in
Snow Depth Not available.
UV 0 out of 12
Pollen 3.20 out of 12
Air Quality Not available.
Flu Activity Not available.
METAR KOAK 070553Z 27013KT 10SM FEW010 17/14 A3003 RMK AO2 SLP169 T01720144 10217 20172 50004

More Conditions Fewer Conditions

Pressure 30.03 in
Visibility 10.0 miles
Clouds Few 1000 ft
Dew Point 56 °F
Humidity 83%
Rainfall 0.00 in
Snow Depth Not available.
UV 0 out of 12
Pollen 3.20 out of 12
Air Quality Not available.
Flu Activity Not available.
METAR KOAK 070553Z 27013KT 10SM FEW010 17/14 A3003 RMK AO2 SLP169 T01720144 10217 20172 50004

More Conditions Fewer Conditions

10-Day Weather Forecast

×

Almanac

Astronomy

Jul. 06, 2015 Rise Set
Actual Time
Civil Twilight
Nautical Twilight
Astronomical Twilight
Moon
Length of Visible Light
Length of Day
Tomorrow will be .
, % of the Moon is Illuminated

Today's Extremes

State Highs State Lows

Community

WunderPhotos

Upload Photos

1,835,740 photos uploaded!

WunderBlogs® & News

Nearby

Air Quality

  Air Quality AQ Index Pollutant
Not available.

Snow Depth

Station Depth Elevation

Earthquake Activity

City Distance Mag. Time & Date
Minimum magnitude displayed is 2.5.

Coastal Water Temperatures

Place Temperature

Stations

Nearby Weather Stations

Station Location Temp. Windchill Dew Point Humidity Wind Precip. Elev Updated Type